LUKK/KIV METAR and TAF weather

Enter ICAO airport designator
Station Type Date Time Source
LUKK METAR 2020/04/04 05:30 UTC NOAA

LUKK 040530Z VRB02KT CAVOK 04/M03 Q1020 R08/CLRD// NOSIG


Station Type Date Time Source
LUKK Decoded METAR 2020/04/04 05:30 UTC NOAA

Chisinau International Airport, Moldova (LUKK) 46-55-40N 028-55-51E
Apr 04, 2020 - 01:30 AM EDT / 2020.04.04 0530 UTC
Wind: Variable at 2 MPH (2 KT):0
Visibility: greater than 7 mile(s):0
Temperature: 39 F (4 C)
Dew Point: 26 F (-3 C)
Relative Humidity: 60%
Pressure (altimeter): 30.12 in. Hg (1020 hPa)
ob: LUKK 040530Z VRB02KT CAVOK 04/M03 Q1020 R08/CLRD// NOSIG
cycle: 5

Station Type Date Time Source
LUKK TAF 2020/04/04 06:21 UTC NOAA

TAF TAF LUKK 040520Z 0406/0506 03009KT CAVOK

Example: see airport list